createdAt,value
2022-11-22T00:00:42.756Z,97755.91
2022-11-22T00:04:00.618Z,97753.09
2022-11-22T00:07:17.519Z,97751.44
2022-11-22T00:10:34.886Z,97750.36
2022-11-22T00:13:51.164Z,97751.59
2022-11-22T00:17:08.131Z,97750.89
2022-11-22T00:20:25.053Z,97749.02
2022-11-22T00:23:42.236Z,97749.17
2022-11-22T00:26:59.068Z,97750.00
2022-11-22T00:30:17.630Z,97747.95
2022-11-22T00:33:34.473Z,97765.66
2022-11-22T00:36:50.894Z,97753.47
2022-11-22T00:40:08.333Z,97754.53
2022-11-22T00:43:25.703Z,97757.69
2022-11-22T00:46:42.456Z,97767.72
2022-11-22T00:49:59.118Z,97767.17
2022-11-22T00:53:15.753Z,97770.08
2022-11-22T00:56:32.854Z,97768.98
2022-11-22T00:59:49.447Z,97766.23
2022-11-22T01:03:05.809Z,97764.72
2022-11-22T01:06:22.130Z,97765.56
2022-11-22T01:09:39.014Z,97771.99
2022-11-22T01:12:55.304Z,97775.58
2022-11-22T01:16:15.430Z,97777.08
2022-11-22T01:19:32.016Z,97779.41
2022-11-22T01:22:48.953Z,97779.00
2022-11-22T01:26:05.763Z,97776.68
2022-11-22T01:29:22.008Z,97783.95
2022-11-22T01:32:38.402Z,97802.33
2022-11-22T01:35:55.267Z,97792.86
2022-11-22T01:39:11.859Z,97789.00
2022-11-22T01:42:28.549Z,97781.73
2022-11-22T01:45:57.767Z,97779.42
2022-11-22T01:49:18.730Z,97786.94
2022-11-22T01:52:38.083Z,97785.44
2022-11-22T01:55:55.769Z,97775.70
2022-11-22T01:59:17.146Z,97774.20
2022-11-22T02:02:34.045Z,97778.02
2022-11-22T02:05:51.825Z,97773.77
2022-11-22T02:09:13.419Z,97783.23
2022-11-22T02:12:34.624Z,97776.11
2022-11-22T02:15:51.764Z,97768.44
2022-11-22T02:19:08.590Z,97775.00
2022-11-22T02:22:37.109Z,97777.60
2022-11-22T02:26:03.315Z,97764.86
2022-11-22T02:29:20.288Z,97761.73
2022-11-22T02:32:37.192Z,97758.15
2022-11-22T02:35:54.908Z,97751.69
2022-11-22T02:39:12.652Z,97749.78
2022-11-22T02:42:29.773Z,97744.56
2022-11-22T02:45:46.577Z,97743.87
2022-11-22T02:49:03.492Z,97741.65
2022-11-22T02:52:23.056Z,97741.78
2022-11-22T02:55:39.793Z,97743.75
2022-11-22T02:58:56.233Z,97742.94
2022-11-22T03:02:12.705Z,97740.73
2022-11-22T03:05:30.077Z,97738.69
2022-11-22T03:08:53.181Z,97734.17
2022-11-22T03:12:07.211Z,97728.67
2022-11-22T03:15:23.941Z,97728.52
2022-11-22T03:18:42.896Z,97736.75
2022-11-22T03:21:59.977Z,97741.41
2022-11-22T03:25:17.858Z,97739.34
2022-11-22T03:28:35.947Z,97736.06
2022-11-22T03:31:52.351Z,97729.91
2022-11-22T03:35:10.871Z,97728.52
2022-11-22T03:38:28.127Z,97728.27
2022-11-22T03:41:45.255Z,97734.02
2022-11-22T03:45:01.622Z,97734.56
2022-11-22T03:48:18.044Z,97733.59
2022-11-22T03:51:34.983Z,97731.69
2022-11-22T03:54:51.191Z,97738.80
2022-11-22T03:58:07.538Z,97735.38
2022-11-22T04:01:23.815Z,97744.90
2022-11-22T04:04:40.274Z,97724.61
2022-11-22T04:07:57.161Z,97727.88
2022-11-22T04:11:13.648Z,97741.31
2022-11-22T04:14:44.213Z,97732.66
2022-11-22T04:18:01.241Z,97740.61
2022-11-22T04:21:31.183Z,97736.92
2022-11-22T04:25:01.101Z,97726.68
2022-11-22T04:28:20.184Z,97721.75
2022-11-22T04:31:50.494Z,97719.01
2022-11-22T04:35:06.576Z,97716.13
2022-11-22T04:38:24.457Z,97719.83
2022-11-22T04:41:41.334Z,97723.34
2022-11-22T04:44:57.600Z,97715.89
2022-11-22T04:48:14.494Z,97717.83
2022-11-22T04:51:44.587Z,97719.01
2022-11-22T04:55:00.938Z,97715.84
2022-11-22T04:58:17.578Z,97710.32
2022-11-22T05:01:33.942Z,97718.97
2022-11-22T05:04:52.142Z,97714.42
2022-11-22T05:08:09.287Z,97720.13
2022-11-22T05:11:25.568Z,97718.72
2022-11-22T05:14:42.589Z,97724.49
2022-11-22T05:17:58.706Z,97720.56
2022-11-22T05:21:18.545Z,97723.84
2022-11-22T05:24:35.362Z,97722.22
2022-11-22T05:27:51.432Z,97724.25
2022-11-22T05:31:13.389Z,97721.89
2022-11-22T05:34:29.772Z,97721.84
2022-11-22T05:37:46.052Z,97717.23
2022-11-22T05:41:02.245Z,97720.97
2022-11-22T05:44:19.267Z,97722.25
2022-11-22T05:47:35.524Z,97728.95
2022-11-22T05:50:52.066Z,97736.76
2022-11-22T05:54:08.320Z,97728.04
2022-11-22T05:57:24.718Z,97729.02
2022-11-22T06:00:41.029Z,97733.05
2022-11-22T06:03:58.052Z,97732.72
2022-11-22T06:07:14.520Z,97740.34
2022-11-22T06:10:31.292Z,97742.14
2022-11-22T06:13:49.462Z,97743.27
2022-11-22T06:17:05.743Z,97742.57
2022-11-22T06:20:23.314Z,97742.75
2022-11-22T06:23:40.023Z,97748.52
2022-11-22T06:26:56.283Z,97748.61
2022-11-22T06:30:14.573Z,97745.59
2022-11-22T06:33:30.817Z,97757.52
2022-11-22T06:36:48.149Z,97749.04
2022-11-22T06:40:05.385Z,97758.08
2022-11-22T06:43:21.967Z,97764.27
2022-11-22T06:46:38.945Z,97759.17
2022-11-22T06:49:57.605Z,97764.13
2022-11-22T06:53:39.342Z,97760.01
2022-11-22T06:56:41.093Z,97769.38
2022-11-22T06:59:57.795Z,97758.70
2022-11-22T07:03:14.547Z,97761.30
2022-11-22T07:06:31.714Z,97765.92
2022-11-22T07:09:53.535Z,97768.23
2022-11-22T07:13:09.445Z,97770.51
2022-11-22T07:16:28.862Z,97760.58
2022-11-22T07:19:46.509Z,97776.57
2022-11-22T07:23:03.565Z,97779.88
2022-11-22T07:26:26.758Z,97786.30
2022-11-22T07:29:43.931Z,97787.06
2022-11-22T07:33:00.391Z,97785.46
2022-11-22T07:36:19.867Z,97788.11
2022-11-22T07:39:36.299Z,97774.48
2022-11-22T07:42:58.161Z,97773.00
2022-11-22T07:46:14.270Z,97775.32
2022-11-22T07:49:30.968Z,97777.40
2022-11-22T07:52:47.788Z,97777.01
2022-11-22T07:56:05.971Z,97766.88
2022-11-22T07:59:23.279Z,97767.98
2022-11-22T08:02:40.234Z,97786.22
2022-11-22T08:05:56.460Z,97778.12
2022-11-22T08:09:13.160Z,97776.91
2022-11-22T08:12:29.703Z,97778.98
2022-11-22T08:15:46.305Z,97789.67
2022-11-22T08:19:02.940Z,97798.05
2022-11-22T08:22:19.263Z,97781.17
2022-11-22T08:25:35.504Z,97778.98
2022-11-22T08:28:52.706Z,97787.35
2022-11-22T08:32:10.209Z,97792.02
2022-11-22T08:35:26.576Z,97803.70
2022-11-22T08:38:43.241Z,97798.73
2022-11-22T08:42:01.119Z,97813.98
2022-11-22T08:45:19.454Z,97809.03
2022-11-22T08:48:37.523Z,97825.36
2022-11-22T08:51:54.083Z,97823.02
2022-11-22T08:55:10.930Z,97816.19
2022-11-22T08:58:27.946Z,97808.22
2022-11-22T09:01:44.173Z,97811.78
2022-11-22T09:05:00.935Z,97807.78
2022-11-22T09:08:24.540Z,97802.00
2022-11-22T09:11:36.156Z,97798.57
2022-11-22T09:14:52.694Z,97801.25
2022-11-22T09:18:12.074Z,97798.98
2022-11-22T09:21:26.924Z,97803.86
2022-11-22T09:24:43.411Z,97800.64
2022-11-22T09:28:01.227Z,97805.59
2022-11-22T09:31:21.059Z,97800.92
2022-11-22T09:34:37.275Z,97799.09
2022-11-22T09:37:54.155Z,97803.29
2022-11-22T09:41:18.912Z,97797.76
2022-11-22T09:44:43.578Z,97792.33
2022-11-22T09:48:09.935Z,97795.45
2022-11-22T09:51:31.973Z,97792.77
2022-11-22T09:54:54.412Z,97796.47
2022-11-22T09:58:19.691Z,97784.94
2022-11-22T10:01:42.112Z,97796.32
2022-11-22T10:05:05.565Z,97786.20
2022-11-22T10:08:31.789Z,97789.83
2022-11-22T10:11:55.224Z,97790.03
2022-11-22T10:15:17.456Z,97775.78
2022-11-22T10:18:40.421Z,97781.70
2022-11-22T10:21:56.877Z,97781.08
2022-11-22T10:25:21.987Z,97776.01
2022-11-22T10:28:45.307Z,97777.98
2022-11-22T10:32:09.015Z,97782.09
2022-11-22T10:35:40.756Z,97778.81
2022-11-22T10:39:21.049Z,97791.77
2022-11-22T10:42:55.796Z,97779.29
2022-11-22T10:46:19.462Z,97777.96
2022-11-22T10:49:45.913Z,97776.14
2022-11-22T10:53:12.592Z,97774.50
2022-11-22T10:56:38.548Z,97772.00
2022-11-22T11:00:10.649Z,97766.08
2022-11-22T11:03:37.525Z,97763.59
2022-11-22T11:07:12.084Z,97747.13
2022-11-22T11:10:34.039Z,97755.48
2022-11-22T11:13:50.130Z,97746.75
2022-11-22T11:17:07.814Z,97751.20
2022-11-22T11:20:31.874Z,97750.23
2022-11-22T11:23:49.252Z,97757.13
2022-11-22T11:27:08.189Z,97756.16
2022-11-22T11:30:27.278Z,97751.05
2022-11-22T11:33:47.244Z,97751.88
2022-11-22T11:37:06.241Z,97753.84
2022-11-22T11:40:38.388Z,97753.67
2022-11-22T11:43:55.952Z,97744.30
2022-11-22T11:47:15.433Z,97741.16
2022-11-22T11:50:35.544Z,97738.66
2022-11-22T11:54:05.381Z,97738.18
2022-11-22T11:57:25.210Z,97738.18
2022-11-22T12:00:48.365Z,97742.78
2022-11-22T12:04:12.470Z,97732.11
2022-11-22T12:07:32.988Z,97730.12
2022-11-22T12:10:55.797Z,97737.49
2022-11-22T12:14:37.600Z,97737.31
2022-11-22T12:17:41.062Z,97739.77
2022-11-22T12:21:03.409Z,97735.64
2022-11-22T12:27:43.941Z,97724.10
2022-11-22T12:31:08.220Z,97721.77
2022-11-22T12:34:29.735Z,97723.05
2022-11-22T12:37:50.797Z,97714.80
2022-11-22T12:41:13.273Z,97708.03
2022-11-22T12:44:32.582Z,97701.41
2022-11-22T12:47:52.395Z,97701.89
2022-11-22T12:51:15.604Z,97685.77
2022-11-22T12:54:38.260Z,97687.22
2022-11-22T12:58:00.813Z,97681.13
2022-11-22T13:01:26.009Z,97679.52
2022-11-22T13:04:50.046Z,97674.25
2022-11-22T13:08:13.864Z,97677.88
2022-11-22T13:11:35.552Z,97682.95
2022-11-22T13:14:56.674Z,97679.34
2022-11-22T13:18:18.200Z,97686.23
2022-11-22T13:21:57.633Z,97676.52
2022-11-22T13:25:30.253Z,97683.42
2022-11-22T13:28:52.764Z,97678.78
2022-11-22T13:32:30.705Z,97680.61
2022-11-22T13:35:51.497Z,97681.59
2022-11-22T13:39:20.101Z,97680.61
2022-11-22T13:42:39.573Z,97670.89
2022-11-22T13:46:02.660Z,97674.54
2022-11-22T13:49:38.237Z,97676.34
2022-11-22T13:53:06.178Z,97669.80
2022-11-22T13:57:02.371Z,97668.16
2022-11-22T14:00:53.754Z,97670.50
2022-11-22T14:04:48.069Z,97678.73
2022-11-22T14:08:08.818Z,97680.61
2022-11-22T14:11:40.878Z,97674.44
2022-11-22T14:15:35.668Z,97669.22
2022-11-22T14:19:12.948Z,97674.19
2022-11-22T14:22:37.533Z,97666.34
2022-11-22T14:26:15.468Z,97673.28
2022-11-22T14:30:14.746Z,97676.16
2022-11-22T14:33:33.999Z,97680.63
2022-11-22T14:36:50.814Z,97683.95
2022-11-22T14:40:50.740Z,97680.18
2022-11-22T14:44:13.129Z,97684.78
2022-11-22T14:47:30.172Z,97680.20
2022-11-22T14:50:56.653Z,97671.05
2022-11-22T14:54:22.150Z,97675.98
2022-11-22T14:57:42.499Z,97675.51
2022-11-22T15:01:20.869Z,97680.45
2022-11-22T15:09:11.961Z,97673.91
2022-11-22T15:09:19.462Z,97674.55
2022-11-22T15:12:08.886Z,97683.76
2022-11-22T15:59:35.411Z,97702.28
2022-11-22T16:02:56.731Z,97692.09
2022-11-22T16:06:19.337Z,97704.91
2022-11-22T16:09:41.576Z,97700.58
2022-11-22T16:13:00.556Z,97700.49
2022-11-22T16:16:34.114Z,97711.34
2022-11-22T16:19:53.307Z,97710.93
2022-11-22T16:23:27.754Z,97719.70
2022-11-22T16:26:45.274Z,97712.24
2022-11-22T16:30:02.736Z,97709.09
2022-11-22T16:33:21.000Z,97702.56
2022-11-22T16:36:40.071Z,97707.84
2022-11-22T16:39:58.631Z,97708.88
2022-11-22T16:43:24.247Z,97715.69
2022-11-22T16:46:40.712Z,97720.44
2022-11-22T16:49:59.047Z,97718.69
2022-11-22T16:53:22.929Z,97722.07
2022-11-22T16:56:42.275Z,97728.81
2022-11-22T16:59:57.372Z,97720.16
2022-11-22T17:03:18.957Z,97721.67
2022-11-22T17:06:39.902Z,97717.09
2022-11-22T17:09:57.223Z,97723.00
2022-11-22T17:13:55.124Z,97723.97
2022-11-22T17:17:18.478Z,97728.40
2022-11-22T17:20:40.261Z,97727.21
2022-11-22T17:24:01.153Z,97732.45
2022-11-22T17:27:20.666Z,97733.07
2022-11-22T17:30:42.968Z,97731.42
2022-11-22T17:34:15.417Z,97721.28
2022-11-22T17:37:34.779Z,97732.21
2022-11-22T17:40:59.769Z,97724.98
2022-11-22T17:44:25.068Z,97728.89
2022-11-22T17:48:03.257Z,97733.16
2022-11-22T17:51:23.897Z,97737.88
2022-11-22T17:54:47.453Z,97736.23
2022-11-22T17:58:13.008Z,97730.31
2022-11-22T18:01:39.273Z,97733.55
2022-11-22T18:05:03.872Z,97737.98
2022-11-22T18:08:21.443Z,97740.44
2022-11-22T18:11:42.654Z,97740.08
2022-11-22T18:15:01.469Z,97743.50
2022-11-22T18:18:48.498Z,97747.09
2022-11-22T18:24:48.901Z,97748.53
2022-11-22T18:28:11.958Z,97758.33
2022-11-22T18:31:47.657Z,97766.78
2022-11-22T18:34:50.721Z,97763.80
2022-11-22T18:38:18.694Z,97760.38
2022-11-22T18:41:41.307Z,97752.62
2022-11-22T18:44:59.450Z,97749.64
2022-11-22T18:48:17.597Z,97750.61
2022-11-22T18:51:36.440Z,97748.59
2022-11-22T18:54:55.527Z,97746.73
2022-11-22T18:58:13.453Z,97748.83
2022-11-22T19:01:32.942Z,97745.69
2022-11-22T19:04:52.376Z,97743.83
2022-11-22T19:08:10.306Z,97743.38
2022-11-22T19:11:28.232Z,97758.30
2022-11-22T19:14:45.943Z,97759.14
2022-11-22T19:18:03.404Z,97762.41
2022-11-22T19:21:23.011Z,97758.55
2022-11-22T19:24:43.566Z,97757.19
2022-11-22T19:28:05.176Z,97762.88
2022-11-22T19:31:25.701Z,97750.25
2022-11-22T19:34:43.870Z,97758.24
2022-11-22T19:38:04.033Z,97757.72
2022-11-22T19:41:25.870Z,97758.95
2022-11-22T19:44:43.670Z,97765.17
2022-11-22T19:47:59.483Z,97767.27
2022-11-22T19:51:20.074Z,97770.84
2022-11-22T19:54:38.067Z,97770.00
2022-11-22T19:57:56.069Z,97768.07
2022-11-22T20:01:19.160Z,97772.48
2022-11-22T20:04:37.032Z,97772.33
2022-11-22T20:07:55.016Z,97780.45
2022-11-22T20:11:15.575Z,97790.67
2022-11-22T20:14:32.913Z,97793.64
2022-11-22T20:17:51.457Z,97790.23
2022-11-22T20:21:24.054Z,97778.09
2022-11-22T20:24:43.905Z,97780.08
2022-11-22T20:28:02.927Z,97788.48
2022-11-22T20:31:26.143Z,97791.60
2022-11-22T20:34:59.457Z,97789.29
2022-11-22T20:38:40.899Z,97781.43
2022-11-22T20:42:32.500Z,97774.22
2022-11-22T20:45:29.127Z,97773.84
2022-11-22T20:48:55.343Z,97770.63
2022-11-22T20:52:38.440Z,97774.92
2022-11-22T20:55:57.426Z,97777.35
2022-11-22T20:59:20.402Z,97789.27
2022-11-22T21:02:37.781Z,97788.39
2022-11-22T21:06:01.198Z,97785.20
2022-11-22T21:09:18.167Z,97782.32
2022-11-22T21:12:38.260Z,97782.32
2022-11-22T21:15:55.494Z,97786.70
2022-11-22T21:19:13.140Z,97790.16
2022-11-22T21:22:32.097Z,97791.27
2022-11-22T21:25:54.262Z,97790.81
2022-11-22T21:29:24.119Z,97788.20
2022-11-22T21:32:42.614Z,97791.11
2022-11-22T21:35:59.807Z,97792.29
2022-11-22T21:39:16.436Z,97790.72
2022-11-22T21:42:32.660Z,97789.66
2022-11-22T21:45:49.777Z,97785.25
2022-11-22T21:49:06.688Z,97788.13
2022-11-22T21:52:29.055Z,97792.79
2022-11-22T21:55:58.523Z,97791.30
2022-11-22T21:59:21.600Z,97793.52
2022-11-22T22:02:47.911Z,97791.31
2022-11-22T22:06:07.627Z,97788.15
2022-11-22T22:09:23.743Z,97788.80
2022-11-22T22:12:40.375Z,97778.91
2022-11-22T22:15:59.200Z,97777.67
2022-11-22T22:19:17.761Z,97778.73
2022-11-22T22:22:34.458Z,97781.22
2022-11-22T22:25:51.023Z,97781.07
2022-11-22T22:29:07.378Z,97780.23
2022-11-22T22:32:23.673Z,97782.84
2022-11-22T22:35:40.435Z,97782.62
2022-11-22T22:38:57.322Z,97793.20
2022-11-22T22:42:14.962Z,97796.52
2022-11-22T22:45:32.421Z,97797.08
2022-11-22T22:48:49.755Z,97794.58
2022-11-22T22:52:06.463Z,97808.86
2022-11-22T22:55:22.733Z,97790.36
2022-11-22T22:58:39.085Z,97781.70
2022-11-22T23:01:55.388Z,97784.88
2022-11-22T23:05:12.783Z,97786.67
2022-11-22T23:08:28.858Z,97779.39
2022-11-22T23:12:00.243Z,97795.19
2022-11-22T23:15:32.936Z,97793.54
2022-11-22T23:18:36.756Z,97796.41
2022-11-22T23:21:53.309Z,97796.95
2022-11-22T23:25:09.870Z,97792.44
2022-11-22T23:28:26.721Z,97787.08
2022-11-22T23:31:43.273Z,97791.63
2022-11-22T23:35:00.714Z,97782.95
2022-11-22T23:38:18.659Z,97777.04
2022-11-22T23:41:35.832Z,97777.48
2022-11-22T23:44:52.155Z,97773.63
2022-11-22T23:48:08.936Z,97784.47
2022-11-22T23:51:25.534Z,97780.91
2022-11-22T23:54:42.676Z,97773.23
2022-11-22T23:57:58.821Z,97770.22
